sensor_id;sensor_type;location;lat;lon;timestamp;P1;durP1;ratioP1;P2;durP2;ratioP2
19754;SDS011;10036;47.812;9.274;2023-02-01T00:02:18;8.68;;;5.78;;
19754;SDS011;10036;47.812;9.274;2023-02-01T00:04:45;8.02;;;5.35;;
19754;SDS011;10036;47.812;9.274;2023-02-01T00:07:12;7.47;;;5.35;;
19754;SDS011;10036;47.812;9.274;2023-02-01T00:09:39;7.43;;;5.10;;
19754;SDS011;10036;47.812;9.274;2023-02-01T00:12:06;7.28;;;5.57;;
19754;SDS011;10036;47.812;9.274;2023-02-01T00:14:34;9.32;;;5.50;;
19754;SDS011;10036;47.812;9.274;2023-02-01T00:17:03;7.60;;;5.40;;
19754;SDS011;10036;47.812;9.274;2023-02-01T00:19:32;8.30;;;5.22;;
19754;SDS011;10036;47.812;9.274;2023-02-01T00:21:59;8.50;;;5.07;;
19754;SDS011;10036;47.812;9.274;2023-02-01T00:24:26;6.95;;;4.90;;
19754;SDS011;10036;47.812;9.274;2023-02-01T00:26:53;7.50;;;5.07;;
19754;SDS011;10036;47.812;9.274;2023-02-01T00:29:20;6.82;;;4.72;;
19754;SDS011;10036;47.812;9.274;2023-02-01T00:31:50;7.32;;;4.97;;
19754;SDS011;10036;47.812;9.274;2023-02-01T00:34:17;8.25;;;4.88;;
19754;SDS011;10036;47.812;9.274;2023-02-01T00:36:45;10.27;;;4.97;;
19754;SDS011;10036;47.812;9.274;2023-02-01T00:39:13;6.32;;;4.80;;
19754;SDS011;10036;47.812;9.274;2023-02-01T00:41:40;8.65;;;4.93;;
19754;SDS011;10036;47.812;9.274;2023-02-01T00:44:07;7.60;;;4.60;;
19754;SDS011;10036;47.812;9.274;2023-02-01T00:46:34;7.82;;;4.40;;
19754;SDS011;10036;47.812;9.274;2023-02-01T00:49:02;6.78;;;4.60;;
19754;SDS011;10036;47.812;9.274;2023-02-01T00:51:30;7.40;;;4.30;;
19754;SDS011;10036;47.812;9.274;2023-02-01T00:53:57;6.47;;;4.70;;
19754;SDS011;10036;47.812;9.274;2023-02-01T00:56:24;12.65;;;4.72;;
19754;SDS011;10036;47.812;9.274;2023-02-01T00:58:52;5.95;;;4.25;;
19754;SDS011;10036;47.812;9.274;2023-02-01T01:01:23;5.95;;;4.28;;
19754;SDS011;10036;47.812;9.274;2023-02-01T01:03:51;7.00;;;4.70;;
19754;SDS011;10036;47.812;9.274;2023-02-01T01:06:22;5.55;;;4.72;;
19754;SDS011;10036;47.812;9.274;2023-02-01T01:08:51;6.85;;;4.47;;
19754;SDS011;10036;47.812;9.274;2023-02-01T01:11:20;7.90;;;4.63;;
19754;SDS011;10036;47.812;9.274;2023-02-01T01:13:49;5.82;;;4.57;;
19754;SDS011;10036;47.812;9.274;2023-02-01T01:16:17;6.82;;;4.65;;
19754;SDS011;10036;47.812;9.274;2023-02-01T01:18:46;6.85;;;5.03;;
19754;SDS011;10036;47.812;9.274;2023-02-01T01:21:14;5.25;;;4.40;;
19754;SDS011;10036;47.812;9.274;2023-02-01T01:23:43;6.22;;;4.90;;
19754;SDS011;10036;47.812;9.274;2023-02-01T01:26:12;7.07;;;4.85;;
19754;SDS011;10036;47.812;9.274;2023-02-01T01:28:42;9.23;;;5.13;;
19754;SDS011;10036;47.812;9.274;2023-02-01T01:31:09;6.50;;;5.13;;
19754;SDS011;10036;47.812;9.274;2023-02-01T01:33:37;7.05;;;4.72;;
19754;SDS011;10036;47.812;9.274;2023-02-01T01:36:04;8.50;;;5.10;;
19754;SDS011;10036;47.812;9.274;2023-02-01T01:38:31;6.57;;;4.90;;
19754;SDS011;10036;47.812;9.274;2023-02-01T01:41:00;5.88;;;4.30;;
19754;SDS011;10036;47.812;9.274;2023-02-01T01:46:14;9.07;;;4.60;;
19754;SDS011;10036;47.812;9.274;2023-02-01T01:48:42;7.10;;;5.28;;
19754;SDS011;10036;47.812;9.274;2023-02-01T01:51:10;7.38;;;5.03;;
19754;SDS011;10036;47.812;9.274;2023-02-01T01:53:42;8.30;;;5.00;;
19754;SDS011;10036;47.812;9.274;2023-02-01T01:56:13;6.80;;;4.93;;
19754;SDS011;10036;47.812;9.274;2023-02-01T01:58:41;6.70;;;4.85;;
19754;SDS011;10036;47.812;9.274;2023-02-01T02:01:08;9.63;;;5.28;;
19754;SDS011;10036;47.812;9.274;2023-02-01T02:03:37;8.95;;;5.30;;
19754;SDS011;10036;47.812;9.274;2023-02-01T02:06:09;6.55;;;5.13;;
19754;SDS011;10036;47.812;9.274;2023-02-01T02:08:41;7.93;;;5.38;;
19754;SDS011;10036;47.812;9.274;2023-02-01T02:11:09;8.38;;;5.45;;
19754;SDS011;10036;47.812;9.274;2023-02-01T02:13:40;8.18;;;4.63;;
19754;SDS011;10036;47.812;9.274;2023-02-01T02:19:07;8.23;;;5.05;;
19754;SDS011;10036;47.812;9.274;2023-02-01T02:22:04;10.15;;;5.65;;
19754;SDS011;10036;47.812;9.274;2023-02-01T02:24:55;7.63;;;4.75;;
19754;SDS011;10036;47.812;9.274;2023-02-01T02:27:35;6.35;;;4.63;;
19754;SDS011;10036;47.812;9.274;2023-02-01T02:30:21;6.63;;;5.15;;
19754;SDS011;10036;47.812;9.274;2023-02-01T02:33:27;7.65;;;4.82;;
19754;SDS011;10036;47.812;9.274;2023-02-01T02:36:10;6.45;;;4.95;;
19754;SDS011;10036;47.812;9.274;2023-02-01T02:38:41;7.05;;;5.40;;
19754;SDS011;10036;47.812;9.274;2023-02-01T02:41:15;9.57;;;5.10;;
19754;SDS011;10036;47.812;9.274;2023-02-01T02:44:02;7.05;;;5.00;;
19754;SDS011;10036;47.812;9.274;2023-02-01T02:46:53;6.75;;;4.57;;
19754;SDS011;10036;47.812;9.274;2023-02-01T02:49:47;7.07;;;5.25;;
19754;SDS011;10036;47.812;9.274;2023-02-01T02:52:32;6.13;;;4.88;;
19754;SDS011;10036;47.812;9.274;2023-02-01T02:55:19;8.20;;;5.57;;
19754;SDS011;10036;47.812;9.274;2023-02-01T02:57:47;11.20;;;5.63;;
19754;SDS011;10036;47.812;9.274;2023-02-01T03:00:33;9.80;;;5.80;;
19754;SDS011;10036;47.812;9.274;2023-02-01T03:03:19;8.07;;;5.75;;
19754;SDS011;10036;47.812;9.274;2023-02-01T03:06:07;9.20;;;5.40;;
19754;SDS011;10036;47.812;9.274;2023-02-01T03:08:39;7.75;;;5.47;;
19754;SDS011;10036;47.812;9.274;2023-02-01T03:11:11;7.30;;;5.45;;
19754;SDS011;10036;47.812;9.274;2023-02-01T03:13:42;9.23;;;5.85;;
19754;SDS011;10036;47.812;9.274;2023-02-01T03:16:11;7.05;;;5.35;;
19754;SDS011;10036;47.812;9.274;2023-02-01T03:18:44;8.73;;;5.20;;
19754;SDS011;10036;47.812;9.274;2023-02-01T03:21:17;6.55;;;5.00;;
19754;SDS011;10036;47.812;9.274;2023-02-01T03:23:48;9.25;;;5.93;;
19754;SDS011;10036;47.812;9.274;2023-02-01T03:26:17;7.95;;;6.13;;
19754;SDS011;10036;47.812;9.274;2023-02-01T03:28:48;9.40;;;6.57;;
19754;SDS011;10036;47.812;9.274;2023-02-01T03:31:21;8.60;;;5.80;;
19754;SDS011;10036;47.812;9.274;2023-02-01T03:33:48;6.85;;;5.13;;
19754;SDS011;10036;47.812;9.274;2023-02-01T03:36:20;8.05;;;5.45;;
19754;SDS011;10036;47.812;9.274;2023-02-01T03:38:52;7.45;;;4.93;;
19754;SDS011;10036;47.812;9.274;2023-02-01T03:41:26;8.32;;;4.82;;
19754;SDS011;10036;47.812;9.274;2023-02-01T03:43:58;7.57;;;5.50;;
19754;SDS011;10036;47.812;9.274;2023-02-01T03:46:33;9.07;;;5.72;;
19754;SDS011;10036;47.812;9.274;2023-02-01T03:49:05;9.48;;;4.80;;
19754;SDS011;10036;47.812;9.274;2023-02-01T03:51:37;8.93;;;5.47;;
19754;SDS011;10036;47.812;9.274;2023-02-01T03:54:06;8.15;;;5.47;;
19754;SDS011;10036;47.812;9.274;2023-02-01T03:56:38;10.70;;;6.03;;
19754;SDS011;10036;47.812;9.274;2023-02-01T03:59:10;8.95;;;6.53;;
19754;SDS011;10036;47.812;9.274;2023-02-01T04:01:38;10.00;;;5.75;;
19754;SDS011;10036;47.812;9.274;2023-02-01T04:04:06;12.43;;;6.68;;
19754;SDS011;10036;47.812;9.274;2023-02-01T04:06:34;8.88;;;6.28;;
19754;SDS011;10036;47.812;9.274;2023-02-01T04:09:02;10.23;;;5.78;;
19754;SDS011;10036;47.812;9.274;2023-02-01T04:11:29;9.80;;;6.07;;
19754;SDS011;10036;47.812;9.274;2023-02-01T04:13:56;9.07;;;6.55;;
19754;SDS011;10036;47.812;9.274;2023-02-01T04:16:23;10.02;;;6.47;;
19754;SDS011;10036;47.812;9.274;2023-02-01T04:18:50;9.18;;;5.57;;
19754;SDS011;10036;47.812;9.274;2023-02-01T04:21:17;8.15;;;5.85;;
19754;SDS011;10036;47.812;9.274;2023-02-01T04:23:44;12.63;;;6.82;;
19754;SDS011;10036;47.812;9.274;2023-02-01T04:26:13;9.10;;;5.65;;
19754;SDS011;10036;47.812;9.274;2023-02-01T04:28:41;9.63;;;5.78;;
19754;SDS011;10036;47.812;9.274;2023-02-01T04:31:08;8.70;;;6.10;;
19754;SDS011;10036;47.812;9.274;2023-02-01T04:33:35;8.60;;;6.00;;
19754;SDS011;10036;47.812;9.274;2023-02-01T04:36:02;12.00;;;6.38;;
19754;SDS011;10036;47.812;9.274;2023-02-01T04:38:29;9.48;;;6.30;;
19754;SDS011;10036;47.812;9.274;2023-02-01T04:40:57;8.57;;;5.70;;
19754;SDS011;10036;47.812;9.274;2023-02-01T04:43:26;10.45;;;6.75;;
19754;SDS011;10036;47.812;9.274;2023-02-01T04:45:53;11.18;;;6.13;;
19754;SDS011;10036;47.812;9.274;2023-02-01T04:48:20;10.40;;;6.38;;
19754;SDS011;10036;47.812;9.274;2023-02-01T04:50:48;8.40;;;5.90;;
19754;SDS011;10036;47.812;9.274;2023-02-01T04:53:15;9.52;;;6.38;;
19754;SDS011;10036;47.812;9.274;2023-02-01T04:55:42;10.43;;;6.10;;
19754;SDS011;10036;47.812;9.274;2023-02-01T04:58:10;8.00;;;5.80;;
19754;SDS011;10036;47.812;9.274;2023-02-01T05:00:38;10.07;;;6.47;;
19754;SDS011;10036;47.812;9.274;2023-02-01T05:03:05;9.73;;;6.03;;
19754;SDS011;10036;47.812;9.274;2023-02-01T05:05:32;9.73;;;6.07;;
19754;SDS011;10036;47.812;9.274;2023-02-01T05:07:59;10.20;;;5.90;;
19754;SDS011;10036;47.812;9.274;2023-02-01T05:10:26;9.07;;;6.18;;
19754;SDS011;10036;47.812;9.274;2023-02-01T05:12:53;8.70;;;5.75;;
19754;SDS011;10036;47.812;9.274;2023-02-01T05:15:53;10.20;;;7.07;;
19754;SDS011;10036;47.812;9.274;2023-02-01T05:18:20;9.57;;;6.60;;
19754;SDS011;10036;47.812;9.274;2023-02-01T05:20:47;10.35;;;6.57;;
19754;SDS011;10036;47.812;9.274;2023-02-01T05:23:14;10.35;;;5.78;;
19754;SDS011;10036;47.812;9.274;2023-02-01T05:25:41;9.35;;;6.07;;
19754;SDS011;10036;47.812;9.274;2023-02-01T05:28:08;8.82;;;5.95;;
19754;SDS011;10036;47.812;9.274;2023-02-01T05:30:35;10.38;;;6.20;;
19754;SDS011;10036;47.812;9.274;2023-02-01T05:33:03;9.43;;;6.30;;
19754;SDS011;10036;47.812;9.274;2023-02-01T05:35:30;10.00;;;6.20;;
19754;SDS011;10036;47.812;9.274;2023-02-01T05:37:57;9.93;;;5.97;;
19754;SDS011;10036;47.812;9.274;2023-02-01T05:40:24;9.40;;;6.63;;
19754;SDS011;10036;47.812;9.274;2023-02-01T05:42:51;9.00;;;6.13;;
19754;SDS011;10036;47.812;9.274;2023-02-01T05:45:18;8.85;;;5.82;;
19754;SDS011;10036;47.812;9.274;2023-02-01T05:47:44;10.93;;;6.30;;
19754;SDS011;10036;47.812;9.274;2023-02-01T05:52:41;8.00;;;6.05;;
19754;SDS011;10036;47.812;9.274;2023-02-01T05:55:08;9.82;;;6.95;;
19754;SDS011;10036;47.812;9.274;2023-02-01T05:57:35;8.77;;;6.60;;
19754;SDS011;10036;47.812;9.274;2023-02-01T06:00:02;9.15;;;6.32;;
19754;SDS011;10036;47.812;9.274;2023-02-01T06:02:30;9.45;;;6.55;;
19754;SDS011;10036;47.812;9.274;2023-02-01T06:04:57;9.48;;;6.55;;
19754;SDS011;10036;47.812;9.274;2023-02-01T06:07:25;11.60;;;7.55;;
19754;SDS011;10036;47.812;9.274;2023-02-01T06:09:52;12.65;;;7.47;;
19754;SDS011;10036;47.812;9.274;2023-02-01T06:12:19;13.75;;;7.78;;
19754;SDS011;10036;47.812;9.274;2023-02-01T06:14:46;10.38;;;6.82;;
19754;SDS011;10036;47.812;9.274;2023-02-01T06:17:13;11.48;;;7.55;;
19754;SDS011;10036;47.812;9.274;2023-02-01T06:19:40;12.32;;;8.48;;
19754;SDS011;10036;47.812;9.274;2023-02-01T06:22:10;11.85;;;7.88;;
19754;SDS011;10036;47.812;9.274;2023-02-01T06:24:38;10.48;;;7.15;;
19754;SDS011;10036;47.812;9.274;2023-02-01T06:27:06;13.25;;;8.30;;
19754;SDS011;10036;47.812;9.274;2023-02-01T06:29:34;11.95;;;7.60;;
19754;SDS011;10036;47.812;9.274;2023-02-01T06:32:01;13.20;;;8.00;;
19754;SDS011;10036;47.812;9.274;2023-02-01T06:34:28;11.60;;;7.75;;
19754;SDS011;10036;47.812;9.274;2023-02-01T06:36:55;13.00;;;8.35;;
19754;SDS011;10036;47.812;9.274;2023-02-01T06:39:22;12.10;;;7.60;;
19754;SDS011;10036;47.812;9.274;2023-02-01T06:41:50;12.88;;;7.70;;
19754;SDS011;10036;47.812;9.274;2023-02-01T06:44:17;10.57;;;7.55;;
19754;SDS011;10036;47.812;9.274;2023-02-01T06:46:44;11.50;;;7.43;;
19754;SDS011;10036;47.812;9.274;2023-02-01T06:49:11;12.77;;;8.40;;
19754;SDS011;10036;47.812;9.274;2023-02-01T06:51:38;11.68;;;7.30;;
19754;SDS011;10036;47.812;9.274;2023-02-01T06:54:05;10.55;;;7.63;;
19754;SDS011;10036;47.812;9.274;2023-02-01T06:56:32;14.02;;;8.07;;
19754;SDS011;10036;47.812;9.274;2023-02-01T06:59:01;12.85;;;7.45;;
19754;SDS011;10036;47.812;9.274;2023-02-01T07:01:30;13.98;;;8.27;;
19754;SDS011;10036;47.812;9.274;2023-02-01T07:03:57;11.15;;;8.05;;
19754;SDS011;10036;47.812;9.274;2023-02-01T07:06:24;10.65;;;7.80;;
19754;SDS011;10036;47.812;9.274;2023-02-01T07:08:51;9.75;;;6.93;;
19754;SDS011;10036;47.812;9.274;2023-02-01T07:11:21;10.18;;;7.22;;
19754;SDS011;10036;47.812;9.274;2023-02-01T07:13:48;10.32;;;6.90;;
19754;SDS011;10036;47.812;9.274;2023-02-01T07:16:17;11.32;;;6.50;;
19754;SDS011;10036;47.812;9.274;2023-02-01T07:18:45;8.52;;;6.20;;
19754;SDS011;10036;47.812;9.274;2023-02-01T07:21:12;11.18;;;6.68;;
19754;SDS011;10036;47.812;9.274;2023-02-01T07:23:39;9.77;;;6.88;;
19754;SDS011;10036;47.812;9.274;2023-02-01T07:26:07;10.63;;;6.10;;
19754;SDS011;10036;47.812;9.274;2023-02-01T07:28:37;10.52;;;6.25;;
19754;SDS011;10036;47.812;9.274;2023-02-01T07:31:05;8.32;;;5.95;;
19754;SDS011;10036;47.812;9.274;2023-02-01T07:33:34;9.32;;;6.10;;
19754;SDS011;10036;47.812;9.274;2023-02-01T07:36:01;9.95;;;6.85;;
19754;SDS011;10036;47.812;9.274;2023-02-01T07:38:30;11.80;;;7.13;;
19754;SDS011;10036;47.812;9.274;2023-02-01T07:40:57;12.10;;;8.07;;
19754;SDS011;10036;47.812;9.274;2023-02-01T07:43:25;12.05;;;7.72;;
19754;SDS011;10036;47.812;9.274;2023-02-01T07:45:52;13.23;;;7.32;;
19754;SDS011;10036;47.812;9.274;2023-02-01T07:48:20;9.02;;;6.68;;
19754;SDS011;10036;47.812;9.274;2023-02-01T07:50:56;8.60;;;6.78;;
19754;SDS011;10036;47.812;9.274;2023-02-01T07:53:23;11.57;;;7.63;;
19754;SDS011;10036;47.812;9.274;2023-02-01T07:55:50;13.30;;;7.05;;
19754;SDS011;10036;47.812;9.274;2023-02-01T07:58:17;9.65;;;7.10;;
19754;SDS011;10036;47.812;9.274;2023-02-01T08:00:44;10.18;;;7.95;;
19754;SDS011;10036;47.812;9.274;2023-02-01T08:03:28;11.75;;;7.47;;
19754;SDS011;10036;47.812;9.274;2023-02-01T08:05:57;11.20;;;7.90;;
19754;SDS011;10036;47.812;9.274;2023-02-01T08:08:24;10.43;;;7.10;;
19754;SDS011;10036;47.812;9.274;2023-02-01T08:10:50;10.55;;;7.72;;
19754;SDS011;10036;47.812;9.274;2023-02-01T08:13:19;10.90;;;7.43;;
19754;SDS011;10036;47.812;9.274;2023-02-01T08:15:46;10.10;;;7.18;;
19754;SDS011;10036;47.812;9.274;2023-02-01T08:18:13;11.02;;;7.45;;
19754;SDS011;10036;47.812;9.274;2023-02-01T08:20:41;11.88;;;7.18;;
19754;SDS011;10036;47.812;9.274;2023-02-01T08:23:12;11.75;;;7.03;;
19754;SDS011;10036;47.812;9.274;2023-02-01T08:25:39;10.73;;;7.18;;
19754;SDS011;10036;47.812;9.274;2023-02-01T08:28:06;12.95;;;7.75;;
19754;SDS011;10036;47.812;9.274;2023-02-01T08:30:33;10.15;;;7.03;;
19754;SDS011;10036;47.812;9.274;2023-02-01T08:33:00;10.13;;;6.95;;
19754;SDS011;10036;47.812;9.274;2023-02-01T08:35:27;10.60;;;7.30;;
19754;SDS011;10036;47.812;9.274;2023-02-01T08:37:54;11.73;;;7.55;;
19754;SDS011;10036;47.812;9.274;2023-02-01T08:40:22;12.60;;;7.57;;
19754;SDS011;10036;47.812;9.274;2023-02-01T08:42:49;11.82;;;7.55;;
19754;SDS011;10036;47.812;9.274;2023-02-01T08:45:19;12.10;;;7.97;;
19754;SDS011;10036;47.812;9.274;2023-02-01T08:47:48;11.75;;;7.90;;
19754;SDS011;10036;47.812;9.274;2023-02-01T08:50:16;12.60;;;8.30;;
19754;SDS011;10036;47.812;9.274;2023-02-01T08:52:43;13.05;;;8.23;;
19754;SDS011;10036;47.812;9.274;2023-02-01T08:55:11;15.30;;;8.25;;
19754;SDS011;10036;47.812;9.274;2023-02-01T08:57:39;16.20;;;8.77;;
19754;SDS011;10036;47.812;9.274;2023-02-01T09:00:07;12.02;;;8.65;;
19754;SDS011;10036;47.812;9.274;2023-02-01T09:02:38;14.63;;;8.88;;
19754;SDS011;10036;47.812;9.274;2023-02-01T09:05:05;12.90;;;8.75;;
19754;SDS011;10036;47.812;9.274;2023-02-01T09:07:33;12.70;;;8.50;;
19754;SDS011;10036;47.812;9.274;2023-02-01T09:10:01;17.70;;;9.18;;
19754;SDS011;10036;47.812;9.274;2023-02-01T09:12:28;12.98;;;8.40;;
19754;SDS011;10036;47.812;9.274;2023-02-01T09:14:57;14.23;;;8.85;;
19754;SDS011;10036;47.812;9.274;2023-02-01T09:17:24;14.95;;;9.10;;
19754;SDS011;10036;47.812;9.274;2023-02-01T09:19:52;14.77;;;9.30;;
19754;SDS011;10036;47.812;9.274;2023-02-01T09:22:19;12.82;;;8.68;;
19754;SDS011;10036;47.812;9.274;2023-02-01T09:24:46;14.85;;;8.90;;
19754;SDS011;10036;47.812;9.274;2023-02-01T09:27:13;13.40;;;8.77;;
19754;SDS011;10036;47.812;9.274;2023-02-01T09:29:40;13.65;;;8.82;;
19754;SDS011;10036;47.812;9.274;2023-02-01T09:32:08;14.40;;;8.77;;
19754;SDS011;10036;47.812;9.274;2023-02-01T09:34:36;12.82;;;8.30;;
19754;SDS011;10036;47.812;9.274;2023-02-01T09:37:03;13.65;;;9.25;;
19754;SDS011;10036;47.812;9.274;2023-02-01T09:39:30;15.77;;;9.98;;
19754;SDS011;10036;47.812;9.274;2023-02-01T09:41:59;14.95;;;8.95;;
19754;SDS011;10036;47.812;9.274;2023-02-01T09:44:40;15.65;;;9.85;;
19754;SDS011;10036;47.812;9.274;2023-02-01T09:47:31;17.23;;;10.27;;
19754;SDS011;10036;47.812;9.274;2023-02-01T09:50:00;15.27;;;10.02;;
19754;SDS011;10036;47.812;9.274;2023-02-01T09:52:31;17.05;;;9.60;;
19754;SDS011;10036;47.812;9.274;2023-02-01T09:55:06;14.82;;;9.45;;
19754;SDS011;10036;47.812;9.274;2023-02-01T09:57:43;16.95;;;9.60;;
19754;SDS011;10036;47.812;9.274;2023-02-01T10:00:18;15.40;;;9.45;;
19754;SDS011;10036;47.812;9.274;2023-02-01T10:02:51;14.60;;;9.73;;
19754;SDS011;10036;47.812;9.274;2023-02-01T10:08:25;13.75;;;9.07;;
19754;SDS011;10036;47.812;9.274;2023-02-01T10:11:02;16.20;;;9.63;;
19754;SDS011;10036;47.812;9.274;2023-02-01T10:13:45;14.43;;;9.30;;
19754;SDS011;10036;47.812;9.274;2023-02-01T10:16:23;14.05;;;9.35;;
19754;SDS011;10036;47.812;9.274;2023-02-01T10:21:53;13.15;;;9.02;;
19754;SDS011;10036;47.812;9.274;2023-02-01T10:24:40;13.88;;;8.95;;
19754;SDS011;10036;47.812;9.274;2023-02-01T10:27:16;13.70;;;9.18;;
19754;SDS011;10036;47.812;9.274;2023-02-01T10:29:47;13.35;;;8.63;;
19754;SDS011;10036;47.812;9.274;2023-02-01T10:32:20;13.32;;;8.80;;
19754;SDS011;10036;47.812;9.274;2023-02-01T10:34:53;15.27;;;8.80;;
19754;SDS011;10036;47.812;9.274;2023-02-01T10:37:26;12.73;;;7.82;;
19754;SDS011;10036;47.812;9.274;2023-02-01T10:39:56;13.13;;;8.18;;
19754;SDS011;10036;47.812;9.274;2023-02-01T10:42:27;13.52;;;7.93;;
19754;SDS011;10036;47.812;9.274;2023-02-01T10:44:56;11.95;;;7.78;;
19754;SDS011;10036;47.812;9.274;2023-02-01T10:47:26;11.63;;;8.13;;
19754;SDS011;10036;47.812;9.274;2023-02-01T10:49:57;11.02;;;7.80;;
19754;SDS011;10036;47.812;9.274;2023-02-01T10:52:33;9.80;;;7.28;;
19754;SDS011;10036;47.812;9.274;2023-02-01T10:55:26;10.82;;;7.43;;
19754;SDS011;10036;47.812;9.274;2023-02-01T10:57:57;10.80;;;7.00;;
19754;SDS011;10036;47.812;9.274;2023-02-01T11:00:26;12.07;;;7.47;;
19754;SDS011;10036;47.812;9.274;2023-02-01T11:02:54;11.88;;;6.70;;
19754;SDS011;10036;47.812;9.274;2023-02-01T11:05:22;10.50;;;6.72;;
19754;SDS011;10036;47.812;9.274;2023-02-01T11:07:52;10.55;;;6.85;;
19754;SDS011;10036;47.812;9.274;2023-02-01T11:10:34;9.48;;;6.32;;
19754;SDS011;10036;47.812;9.274;2023-02-01T11:13:03;9.35;;;6.25;;
19754;SDS011;10036;47.812;9.274;2023-02-01T11:15:31;7.68;;;6.00;;
19754;SDS011;10036;47.812;9.274;2023-02-01T11:18:07;7.30;;;5.70;;
19754;SDS011;10036;47.812;9.274;2023-02-01T11:20:44;8.95;;;5.88;;
19754;SDS011;10036;47.812;9.274;2023-02-01T11:23:15;8.80;;;5.55;;
19754;SDS011;10036;47.812;9.274;2023-02-01T11:25:47;16.10;;;6.03;;
19754;SDS011;10036;47.812;9.274;2023-02-01T11:28:16;6.70;;;5.20;;
19754;SDS011;10036;47.812;9.274;2023-02-01T11:30:44;7.63;;;5.68;;
19754;SDS011;10036;47.812;9.274;2023-02-01T11:33:15;8.75;;;5.07;;
19754;SDS011;10036;47.812;9.274;2023-02-01T11:35:46;7.05;;;5.25;;
19754;SDS011;10036;47.812;9.274;2023-02-01T11:38:19;7.22;;;5.32;;
19754;SDS011;10036;47.812;9.274;2023-02-01T11:40:48;6.05;;;5.00;;
19754;SDS011;10036;47.812;9.274;2023-02-01T11:43:18;9.38;;;5.10;;
19754;SDS011;10036;47.812;9.274;2023-02-01T11:45:53;5.97;;;4.28;;
19754;SDS011;10036;47.812;9.274;2023-02-01T11:48:21;6.15;;;4.63;;
19754;SDS011;10036;47.812;9.274;2023-02-01T11:50:54;11.32;;;6.50;;
19754;SDS011;10036;47.812;9.274;2023-02-01T11:53:34;8.38;;;4.30;;
19754;SDS011;10036;47.812;9.274;2023-02-01T11:56:12;9.00;;;4.30;;
19754;SDS011;10036;47.812;9.274;2023-02-01T11:58:50;5.28;;;4.22;;
19754;SDS011;10036;47.812;9.274;2023-02-01T12:01:43;7.63;;;4.53;;
19754;SDS011;10036;47.812;9.274;2023-02-01T12:04:39;5.85;;;4.38;;
19754;SDS011;10036;47.812;9.274;2023-02-01T12:07:24;8.07;;;4.55;;
19754;SDS011;10036;47.812;9.274;2023-02-01T12:10:01;8.05;;;5.05;;
19754;SDS011;10036;47.812;9.274;2023-02-01T12:12:39;8.00;;;4.10;;
19754;SDS011;10036;47.812;9.274;2023-02-01T12:15:21;8.98;;;4.28;;
19754;SDS011;10036;47.812;9.274;2023-02-01T12:21:04;10.45;;;4.50;;
19754;SDS011;10036;47.812;9.274;2023-02-01T12:23:46;8.80;;;4.68;;
19754;SDS011;10036;47.812;9.274;2023-02-01T12:32:16;10.70;;;4.65;;
19754;SDS011;10036;47.812;9.274;2023-02-01T12:34:56;6.45;;;4.18;;
19754;SDS011;10036;47.812;9.274;2023-02-01T12:37:53;6.60;;;4.15;;
19754;SDS011;10036;47.812;9.274;2023-02-01T12:40:40;8.60;;;4.63;;
19754;SDS011;10036;47.812;9.274;2023-02-01T12:43:16;12.32;;;4.80;;
19754;SDS011;10036;47.812;9.274;2023-02-01T12:45:51;7.38;;;4.57;;
19754;SDS011;10036;47.812;9.274;2023-02-01T12:48:25;8.32;;;4.43;;
19754;SDS011;10036;47.812;9.274;2023-02-01T12:50:58;7.38;;;4.43;;
19754;SDS011;10036;47.812;9.274;2023-02-01T12:53:30;8.93;;;5.00;;
19754;SDS011;10036;47.812;9.274;2023-02-01T12:56:09;7.20;;;4.50;;
19754;SDS011;10036;47.812;9.274;2023-02-01T12:58:41;7.00;;;4.05;;
19754;SDS011;10036;47.812;9.274;2023-02-01T13:01:12;9.68;;;4.20;;
19754;SDS011;10036;47.812;9.274;2023-02-01T13:03:42;7.68;;;4.35;;
19754;SDS011;10036;47.812;9.274;2023-02-01T13:06:21;8.38;;;4.00;;
19754;SDS011;10036;47.812;9.274;2023-02-01T13:08:52;5.65;;;4.18;;
19754;SDS011;10036;47.812;9.274;2023-02-01T13:11:27;9.40;;;4.45;;
19754;SDS011;10036;47.812;9.274;2023-02-01T13:13:59;7.57;;;4.00;;
19754;SDS011;10036;47.812;9.274;2023-02-01T13:16:30;7.43;;;3.65;;
19754;SDS011;10036;47.812;9.274;2023-02-01T13:19:04;9.45;;;3.60;;
19754;SDS011;10036;47.812;9.274;2023-02-01T13:21:38;5.75;;;3.63;;
19754;SDS011;10036;47.812;9.274;2023-02-01T13:24:10;12.18;;;3.75;;
19754;SDS011;10036;47.812;9.274;2023-02-01T13:26:56;6.38;;;3.35;;
19754;SDS011;10036;47.812;9.274;2023-02-01T13:29:24;11.52;;;3.85;;
19754;SDS011;10036;47.812;9.274;2023-02-01T13:31:56;8.48;;;3.00;;
19754;SDS011;10036;47.812;9.274;2023-02-01T13:34:47;10.52;;;3.25;;
19754;SDS011;10036;47.812;9.274;2023-02-01T13:37:48;9.32;;;3.35;;
19754;SDS011;10036;47.812;9.274;2023-02-01T13:40:36;11.60;;;3.30;;
19754;SDS011;10036;47.812;9.274;2023-02-01T13:43:09;9.40;;;2.90;;
19754;SDS011;10036;47.812;9.274;2023-02-01T13:45:44;8.93;;;3.22;;
19754;SDS011;10036;47.812;9.274;2023-02-01T13:48:18;10.73;;;2.80;;
19754;SDS011;10036;47.812;9.274;2023-02-01T13:50:50;10.15;;;3.25;;
19754;SDS011;10036;47.812;9.274;2023-02-01T13:53:21;8.45;;;2.63;;
19754;SDS011;10036;47.812;9.274;2023-02-01T13:55:55;10.35;;;2.97;;
19754;SDS011;10036;47.812;9.274;2023-02-01T13:58:36;7.10;;;2.67;;
19754;SDS011;10036;47.812;9.274;2023-02-01T14:04:02;8.70;;;3.40;;
19754;SDS011;10036;47.812;9.274;2023-02-01T14:06:44;6.82;;;3.35;;
19754;SDS011;10036;47.812;9.274;2023-02-01T14:09:16;10.68;;;3.03;;
19754;SDS011;10036;47.812;9.274;2023-02-01T14:11:46;7.88;;;2.85;;
19754;SDS011;10036;47.812;9.274;2023-02-01T14:23:21;7.72;;;3.05;;
19754;SDS011;10036;47.812;9.274;2023-02-01T14:26:02;8.85;;;2.83;;
19754;SDS011;10036;47.812;9.274;2023-02-01T14:28:35;6.53;;;2.88;;
19754;SDS011;10036;47.812;9.274;2023-02-01T14:31:15;6.65;;;2.97;;
19754;SDS011;10036;47.812;9.274;2023-02-01T14:36:25;7.07;;;3.30;;
19754;SDS011;10036;47.812;9.274;2023-02-01T14:39:04;7.57;;;3.22;;
19754;SDS011;10036;47.812;9.274;2023-02-01T14:41:46;11.55;;;3.08;;
19754;SDS011;10036;47.812;9.274;2023-02-01T14:44:23;9.77;;;3.63;;
19754;SDS011;10036;47.812;9.274;2023-02-01T14:52:50;7.68;;;3.20;;
19754;SDS011;10036;47.812;9.274;2023-02-01T14:55:34;8.98;;;3.28;;
19754;SDS011;10036;47.812;9.274;2023-02-01T14:58:05;9.55;;;3.25;;
19754;SDS011;10036;47.812;9.274;2023-02-01T15:00:43;9.25;;;3.40;;
19754;SDS011;10036;47.812;9.274;2023-02-01T15:03:19;8.05;;;3.13;;
19754;SDS011;10036;47.812;9.274;2023-02-01T15:05:57;8.98;;;2.95;;
19754;SDS011;10036;47.812;9.274;2023-02-01T15:08:26;11.07;;;2.92;;
19754;SDS011;10036;47.812;9.274;2023-02-01T15:10:57;14.02;;;3.30;;
19754;SDS011;10036;47.812;9.274;2023-02-01T15:13:27;7.00;;;2.95;;
19754;SDS011;10036;47.812;9.274;2023-02-01T15:16:02;11.45;;;3.08;;
19754;SDS011;10036;47.812;9.274;2023-02-01T15:18:30;7.35;;;3.05;;
19754;SDS011;10036;47.812;9.274;2023-02-01T15:21:00;10.27;;;3.13;;
19754;SDS011;10036;47.812;9.274;2023-02-01T15:23:28;5.85;;;2.88;;
19754;SDS011;10036;47.812;9.274;2023-02-01T15:25:55;6.43;;;2.67;;
19754;SDS011;10036;47.812;9.274;2023-02-01T15:28:23;9.20;;;3.17;;
19754;SDS011;10036;47.812;9.274;2023-02-01T15:30:54;8.13;;;3.05;;
19754;SDS011;10036;47.812;9.274;2023-02-01T15:33:23;7.63;;;3.00;;
19754;SDS011;10036;47.812;9.274;2023-02-01T15:35:51;8.38;;;3.30;;
19754;SDS011;10036;47.812;9.274;2023-02-01T15:38:28;8.15;;;3.05;;
19754;SDS011;10036;47.812;9.274;2023-02-01T15:40:59;8.10;;;3.20;;
19754;SDS011;10036;47.812;9.274;2023-02-01T15:43:28;6.60;;;3.33;;
19754;SDS011;10036;47.812;9.274;2023-02-01T15:45:57;13.10;;;3.70;;
19754;SDS011;10036;47.812;9.274;2023-02-01T15:48:28;9.15;;;3.20;;
19754;SDS011;10036;47.812;9.274;2023-02-01T15:50:58;14.63;;;3.53;;
19754;SDS011;10036;47.812;9.274;2023-02-01T15:53:28;9.23;;;3.30;;